sensor_id;sensor_type;location;lat;lon;timestamp;pressure;altitude;pressure_sealevel;temperature;humidity
56198;BME280;42700;42.524;12.052;2022-11-20T00:02:08;95427.38;;;9.29;100.00
56198;BME280;42700;42.524;12.052;2022-11-20T00:04:33;95685.31;;;9.53;100.00
56198;BME280;42700;42.524;12.052;2022-11-20T00:06:59;95619.13;;;9.47;100.00
56198;BME280;42700;42.524;12.052;2022-11-20T00:09:24;95707.09;;;9.55;100.00
56198;BME280;42700;42.524;12.052;2022-11-20T00:11:49;95664.09;;;9.53;100.00
56198;BME280;42700;42.524;12.052;2022-11-20T00:14:15;95526.72;;;9.38;100.00
56198;BME280;42700;42.524;12.052;2022-11-20T00:16:40;95627.66;;;9.49;100.00
56198;BME280;42700;42.524;12.052;2022-11-20T00:19:06;95386.47;;;9.25;100.00
56198;BME280;42700;42.524;12.052;2022-11-20T00:21:31;95459.16;;;9.29;100.00
56198;BME280;42700;42.524;12.052;2022-11-20T00:23:57;95687.34;;;9.51;100.00
56198;BME280;42700;42.524;12.052;2022-11-20T00:26:24;95624.44;;;9.47;100.00
56198;BME280;42700;42.524;12.052;2022-11-20T00:28:51;95585.56;;;9.40;100.00
56198;BME280;42700;42.524;12.052;2022-11-20T00:31:17;95590.88;;;9.40;100.00
56198;BME280;42700;42.524;12.052;2022-11-20T00:33:43;95817.47;;;9.68;100.00
56198;BME280;42700;42.524;12.052;2022-11-20T00:36:12;95792.19;;;9.66;100.00
56198;BME280;42700;42.524;12.052;2022-11-20T00:38:38;95651.06;;;9.52;100.00
56198;BME280;42700;42.524;12.052;2022-11-20T00:41:05;95619.72;;;9.49;100.00
56198;BME280;42700;42.524;12.052;2022-11-20T00:43:31;95742.06;;;9.64;100.00
56198;BME280;42700;42.524;12.052;2022-11-20T00:45:59;95393.84;;;9.23;100.00
56198;BME280;42700;42.524;12.052;2022-11-20T00:48:25;95308.84;;;9.13;100.00
56198;BME280;42700;42.524;12.052;2022-11-20T00:50:51;95674.31;;;9.50;100.00
56198;BME280;42700;42.524;12.052;2022-11-20T00:53:17;95627.13;;;9.40;100.00
56198;BME280;42700;42.524;12.052;2022-11-20T00:55:42;95631.41;;;9.41;100.00
56198;BME280;42700;42.524;12.052;2022-11-20T00:58:07;95856.16;;;9.69;100.00
56198;BME280;42700;42.524;12.052;2022-11-20T01:00:33;95534.94;;;9.30;100.00
56198;BME280;42700;42.524;12.052;2022-11-20T01:02:59;95357.16;;;9.08;100.00
56198;BME280;42700;42.524;12.052;2022-11-20T01:05:24;95413.13;;;9.12;100.00
56198;BME280;42700;42.524;12.052;2022-11-20T01:07:50;95802.69;;;9.54;100.00
56198;BME280;42700;42.524;12.052;2022-11-20T01:10:15;95537.88;;;9.22;100.00
56198;BME280;42700;42.524;12.052;2022-11-20T01:12:41;95629.25;;;9.31;100.00
56198;BME280;42700;42.524;12.052;2022-11-20T01:15:06;95527.16;;;9.17;100.00
56198;BME280;42700;42.524;12.052;2022-11-20T01:17:33;95565.59;;;9.19;100.00
56198;BME280;42700;42.524;12.052;2022-11-20T01:19:58;95595.09;;;9.23;100.00
56198;BME280;42700;42.524;12.052;2022-11-20T01:22:24;95623.22;;;9.24;100.00
56198;BME280;42700;42.524;12.052;2022-11-20T01:24:49;95525.59;;;9.09;100.00
56198;BME280;42700;42.524;12.052;2022-11-20T01:27:15;95738.00;;;9.36;100.00
56198;BME280;42700;42.524;12.052;2022-11-20T01:29:40;95742.72;;;9.34;100.00
56198;BME280;42700;42.524;12.052;2022-11-20T01:32:06;95727.03;;;9.33;100.00
56198;BME280;42700;42.524;12.052;2022-11-20T01:34:31;95732.53;;;9.31;100.00
56198;BME280;42700;42.524;12.052;2022-11-20T01:36:57;95732.34;;;9.33;100.00
56198;BME280;42700;42.524;12.052;2022-11-20T01:39:23;95749.03;;;9.33;100.00
56198;BME280;42700;42.524;12.052;2022-11-20T01:41:49;95788.97;;;9.38;100.00
56198;BME280;42700;42.524;12.052;2022-11-20T01:44:43;95845.13;;;9.47;100.00
56198;BME280;42700;42.524;12.052;2022-11-20T01:47:11;95898.66;;;9.56;100.00
56198;BME280;42700;42.524;12.052;2022-11-20T01:49:50;95869.94;;;9.53;100.00
56198;BME280;42700;42.524;12.052;2022-11-20T01:52:19;95813.56;;;9.46;100.00
56198;BME280;42700;42.524;12.052;2022-11-20T01:54:47;95866.28;;;9.54;100.00
56198;BME280;42700;42.524;12.052;2022-11-20T01:57:14;95785.84;;;9.41;100.00
56198;BME280;42700;42.524;12.052;2022-11-20T01:59:41;95720.94;;;9.32;100.00
56198;BME280;42700;42.524;12.052;2022-11-20T02:02:08;95799.09;;;9.41;100.00
56198;BME280;42700;42.524;12.052;2022-11-20T02:04:34;95769.78;;;9.36;100.00
56198;BME280;42700;42.524;12.052;2022-11-20T02:07:00;95786.53;;;9.37;100.00
56198;BME280;42700;42.524;12.052;2022-11-20T02:09:26;95820.28;;;9.41;100.00
56198;BME280;42700;42.524;12.052;2022-11-20T02:11:52;95861.84;;;9.48;100.00
56198;BME280;42700;42.524;12.052;2022-11-20T02:14:18;95880.53;;;9.53;100.00
56198;BME280;42700;42.524;12.052;2022-11-20T02:16:45;95767.56;;;9.33;100.00
56198;BME280;42700;42.524;12.052;2022-11-20T02:19:22;95797.13;;;9.37;100.00
56198;BME280;42700;42.524;12.052;2022-11-20T02:24:17;95808.91;;;9.41;100.00
56198;BME280;42700;42.524;12.052;2022-11-20T02:26:45;95837.81;;;9.42;100.00
56198;BME280;42700;42.524;12.052;2022-11-20T02:29:13;95835.00;;;9.37;100.00
56198;BME280;42700;42.524;12.052;2022-11-20T02:31:41;95888.91;;;9.50;100.00
56198;BME280;42700;42.524;12.052;2022-11-20T02:34:07;95851.06;;;9.42;100.00
56198;BME280;42700;42.524;12.052;2022-11-20T02:36:33;95928.25;;;9.53;100.00
56198;BME280;42700;42.524;12.052;2022-11-20T02:39:00;95799.16;;;9.35;100.00
56198;BME280;42700;42.524;12.052;2022-11-20T02:41:33;95860.66;;;9.44;100.00
56198;BME280;42700;42.524;12.052;2022-11-20T02:43:59;95853.34;;;9.39;100.00
56198;BME280;42700;42.524;12.052;2022-11-20T02:46:24;95839.94;;;9.34;100.00
56198;BME280;42700;42.524;12.052;2022-11-20T02:48:50;95752.19;;;9.23;100.00
56198;BME280;42700;42.524;12.052;2022-11-20T02:51:15;95794.31;;;9.25;100.00
56198;BME280;42700;42.524;12.052;2022-11-20T02:53:41;95925.41;;;9.48;100.00
56198;BME280;42700;42.524;12.052;2022-11-20T02:56:07;95856.41;;;9.36;100.00
56198;BME280;42700;42.524;12.052;2022-11-20T02:58:32;95882.31;;;9.34;100.00
56198;BME280;42700;42.524;12.052;2022-11-20T03:00:58;95846.03;;;9.34;100.00
56198;BME280;42700;42.524;12.052;2022-11-20T03:03:23;95881.25;;;9.35;100.00
56198;BME280;42700;42.524;12.052;2022-11-20T03:05:49;95916.53;;;9.35;100.00
56198;BME280;42700;42.524;12.052;2022-11-20T03:08:14;95851.56;;;9.26;100.00
56198;BME280;42700;42.524;12.052;2022-11-20T03:10:40;95938.53;;;9.36;100.00
56198;BME280;42700;42.524;12.052;2022-11-20T03:13:05;96028.78;;;9.41;100.00
56198;BME280;42700;42.524;12.052;2022-11-20T03:15:31;95832.28;;;9.19;100.00
56198;BME280;42700;42.524;12.052;2022-11-20T03:17:56;95870.75;;;9.21;100.00
56198;BME280;42700;42.524;12.052;2022-11-20T03:20:22;96086.44;;;9.46;100.00
56198;BME280;42700;42.524;12.052;2022-11-20T03:22:47;95912.91;;;9.23;100.00
56198;BME280;42700;42.524;12.052;2022-11-20T03:25:13;96042.06;;;9.34;100.00
56198;BME280;42700;42.524;12.052;2022-11-20T03:27:38;95946.72;;;9.28;100.00
56198;BME280;42700;42.524;12.052;2022-11-20T03:30:04;95958.53;;;9.25;100.00
56198;BME280;42700;42.524;12.052;2022-11-20T03:32:30;95923.13;;;9.19;100.00
56198;BME280;42700;42.524;12.052;2022-11-20T03:34:56;96066.50;;;9.30;100.00
56198;BME280;42700;42.524;12.052;2022-11-20T03:37:21;96057.16;;;9.27;100.00
56198;BME280;42700;42.524;12.052;2022-11-20T03:39:47;96344.91;;;9.68;100.00
56198;BME280;42700;42.524;12.052;2022-11-20T03:42:12;96288.63;;;9.66;100.00
56198;BME280;42700;42.524;12.052;2022-11-20T03:44:56;96339.81;;;9.73;100.00
56198;BME280;42700;42.524;12.052;2022-11-20T03:47:22;96388.34;;;9.74;100.00
56198;BME280;42700;42.524;12.052;2022-11-20T03:49:47;96212.38;;;9.55;100.00
56198;BME280;42700;42.524;12.052;2022-11-20T03:52:13;96278.88;;;9.60;100.00
56198;BME280;42700;42.524;12.052;2022-11-20T03:54:38;96489.72;;;9.89;100.00
56198;BME280;42700;42.524;12.052;2022-11-20T03:57:04;96498.72;;;9.95;100.00
56198;BME280;42700;42.524;12.052;2022-11-20T03:59:30;96474.63;;;9.90;100.00
56198;BME280;42700;42.524;12.052;2022-11-20T04:01:55;96494.63;;;9.92;100.00
56198;BME280;42700;42.524;12.052;2022-11-20T04:04:21;96483.19;;;9.85;100.00
56198;BME280;42700;42.524;12.052;2022-11-20T04:06:46;96613.34;;;9.97;100.00
56198;BME280;42700;42.524;12.052;2022-11-20T04:09:12;96214.03;;;9.56;100.00
56198;BME280;42700;42.524;12.052;2022-11-20T04:11:39;96242.97;;;9.51;100.00
56198;BME280;42700;42.524;12.052;2022-11-20T04:14:06;96313.09;;;9.55;100.00
56198;BME280;42700;42.524;12.052;2022-11-20T04:16:35;96528.03;;;9.73;100.00
56198;BME280;42700;42.524;12.052;2022-11-20T04:19:02;96314.31;;;9.52;100.00
56198;BME280;42700;42.524;12.052;2022-11-20T04:21:28;96371.38;;;9.55;100.00
56198;BME280;42700;42.524;12.052;2022-11-20T04:23:54;96307.38;;;9.45;100.00
56198;BME280;42700;42.524;12.052;2022-11-20T04:26:20;96359.97;;;9.48;100.00
56198;BME280;42700;42.524;12.052;2022-11-20T04:28:46;96442.94;;;9.55;100.00
56198;BME280;42700;42.524;12.052;2022-11-20T04:31:12;96213.25;;;9.29;100.00
56198;BME280;42700;42.524;12.052;2022-11-20T04:33:39;96159.03;;;9.18;100.00
56198;BME280;42700;42.524;12.052;2022-11-20T04:36:05;95870.75;;;8.76;100.00
56198;BME280;42700;42.524;12.052;2022-11-20T04:38:32;95918.19;;;8.78;100.00
56198;BME280;42700;42.524;12.052;2022-11-20T04:40:58;95883.81;;;8.71;100.00
56198;BME280;42700;42.524;12.052;2022-11-20T04:43:25;95904.59;;;8.67;100.00
56198;BME280;42700;42.524;12.052;2022-11-20T04:45:52;95819.97;;;8.54;100.00
56198;BME280;42700;42.524;12.052;2022-11-20T04:48:18;95844.78;;;8.53;100.00
56198;BME280;42700;42.524;12.052;2022-11-20T04:50:43;95950.19;;;8.56;100.00
56198;BME280;42700;42.524;12.052;2022-11-20T04:53:09;95830.56;;;8.41;100.00
56198;BME280;42700;42.524;12.052;2022-11-20T04:55:34;96070.47;;;8.60;100.00
56198;BME280;42700;42.524;12.052;2022-11-20T04:58:00;95852.13;;;8.38;100.00
56198;BME280;42700;42.524;12.052;2022-11-20T05:00:25;96031.19;;;8.50;100.00
56198;BME280;42700;42.524;12.052;2022-11-20T05:02:51;96208.50;;;8.64;100.00
56198;BME280;42700;42.524;12.052;2022-11-20T05:05:16;96005.13;;;8.41;100.00
56198;BME280;42700;42.524;12.052;2022-11-20T05:07:41;96224.97;;;8.59;100.00
56198;BME280;42700;42.524;12.052;2022-11-20T05:10:07;96172.25;;;8.51;100.00
56198;BME280;42700;42.524;12.052;2022-11-20T05:12:33;96203.78;;;8.53;100.00
56198;BME280;42700;42.524;12.052;2022-11-20T05:14:58;96175.28;;;8.48;100.00
56198;BME280;42700;42.524;12.052;2022-11-20T05:17:24;96302.72;;;8.58;100.00
56198;BME280;42700;42.524;12.052;2022-11-20T05:19:49;96221.91;;;8.49;100.00
56198;BME280;42700;42.524;12.052;2022-11-20T05:22:15;96322.66;;;8.54;100.00
56198;BME280;42700;42.524;12.052;2022-11-20T05:24:40;96357.66;;;8.56;100.00
56198;BME280;42700;42.524;12.052;2022-11-20T05:27:06;96425.69;;;8.62;100.00
56198;BME280;42700;42.524;12.052;2022-11-20T05:29:31;96399.81;;;8.58;100.00
56198;BME280;42700;42.524;12.052;2022-11-20T05:31:57;96392.06;;;8.56;100.00
56198;BME280;42700;42.524;12.052;2022-11-20T05:34:22;96364.34;;;8.52;100.00
56198;BME280;42700;42.524;12.052;2022-11-20T05:36:48;96328.13;;;8.46;100.00
56198;BME280;42700;42.524;12.052;2022-11-20T05:39:13;96279.59;;;8.39;100.00
56198;BME280;42700;42.524;12.052;2022-11-20T05:41:39;96204.09;;;8.29;100.00
56198;BME280;42700;42.524;12.052;2022-11-20T05:44:04;96190.66;;;8.24;100.00
56198;BME280;42700;42.524;12.052;2022-11-20T05:46:30;96183.72;;;8.23;100.00
56198;BME280;42700;42.524;12.052;2022-11-20T05:48:56;96194.69;;;8.20;100.00
56198;BME280;42700;42.524;12.052;2022-11-20T05:51:21;96277.75;;;8.26;100.00
56198;BME280;42700;42.524;12.052;2022-11-20T05:53:47;96224.81;;;8.19;100.00
56198;BME280;42700;42.524;12.052;2022-11-20T05:56:14;96178.81;;;8.13;100.00
56198;BME280;42700;42.524;12.052;2022-11-20T05:58:40;96307.03;;;8.24;100.00
56198;BME280;42700;42.524;12.052;2022-11-20T06:01:10;96359.50;;;8.27;100.00
56198;BME280;42700;42.524;12.052;2022-11-20T06:03:36;96270.78;;;8.18;100.00
56198;BME280;42700;42.524;12.052;2022-11-20T06:06:02;96382.50;;;8.27;100.00
56198;BME280;42700;42.524;12.052;2022-11-20T06:08:28;96315.53;;;8.20;100.00
56198;BME280;42700;42.524;12.052;2022-11-20T06:10:54;96310.44;;;8.18;100.00
56198;BME280;42700;42.524;12.052;2022-11-20T06:13:19;96350.53;;;8.22;100.00
56198;BME280;42700;42.524;12.052;2022-11-20T06:15:51;96483.06;;;8.34;100.00
56198;BME280;42700;42.524;12.052;2022-11-20T06:18:17;96476.34;;;8.31;100.00
56198;BME280;42700;42.524;12.052;2022-11-20T06:20:43;96351.75;;;8.19;100.00
56198;BME280;42700;42.524;12.052;2022-11-20T06:23:08;96526.00;;;8.36;100.00
56198;BME280;42700;42.524;12.052;2022-11-20T06:25:37;96540.88;;;8.37;100.00
56198;BME280;42700;42.524;12.052;2022-11-20T06:28:02;96561.84;;;8.38;100.00
56198;BME280;42700;42.524;12.052;2022-11-20T06:30:28;96541.06;;;8.35;100.00
56198;BME280;42700;42.524;12.052;2022-11-20T06:32:53;96444.13;;;8.27;100.00
56198;BME280;42700;42.524;12.052;2022-11-20T06:35:19;96708.31;;;8.52;100.00
56198;BME280;42700;42.524;12.052;2022-11-20T06:37:44;96477.53;;;8.28;100.00
56198;BME280;42700;42.524;12.052;2022-11-20T06:40:10;96568.31;;;8.36;100.00
56198;BME280;42700;42.524;12.052;2022-11-20T06:42:35;96599.50;;;8.40;100.00
56198;BME280;42700;42.524;12.052;2022-11-20T06:45:01;96608.28;;;8.41;100.00
56198;BME280;42700;42.524;12.052;2022-11-20T06:47:26;96660.44;;;8.47;100.00
56198;BME280;42700;42.524;12.052;2022-11-20T06:49:52;96489.56;;;8.31;100.00
56198;BME280;42700;42.524;12.052;2022-11-20T06:52:18;96732.59;;;8.56;100.00
56198;BME280;42700;42.524;12.052;2022-11-20T06:54:43;96792.16;;;8.66;100.00
56198;BME280;42700;42.524;12.052;2022-11-20T06:57:08;96693.34;;;8.59;100.00
56198;BME280;42700;42.524;12.052;2022-11-20T06:59:34;96803.00;;;8.72;100.00
56198;BME280;42700;42.524;12.052;2022-11-20T07:01:59;96873.75;;;8.78;100.00
56198;BME280;42700;42.524;12.052;2022-11-20T07:04:25;96879.66;;;8.80;100.00
56198;BME280;42700;42.524;12.052;2022-11-20T07:06:50;96883.59;;;8.84;100.00
56198;BME280;42700;42.524;12.052;2022-11-20T07:09:16;96855.47;;;8.83;100.00
56198;BME280;42700;42.524;12.052;2022-11-20T07:11:41;96694.84;;;8.68;100.00
56198;BME280;42700;42.524;12.052;2022-11-20T07:14:07;96966.09;;;9.02;100.00
56198;BME280;42700;42.524;12.052;2022-11-20T07:16:32;97015.50;;;9.10;100.00
56198;BME280;42700;42.524;12.052;2022-11-20T07:18:58;97093.69;;;9.21;100.00
56198;BME280;42700;42.524;12.052;2022-11-20T07:21:23;97032.13;;;9.19;100.00
56198;BME280;42700;42.524;12.052;2022-11-20T07:23:49;97251.44;;;9.47;100.00
56198;BME280;42700;42.524;12.052;2022-11-20T07:26:14;97310.59;;;9.62;100.00
56198;BME280;42700;42.524;12.052;2022-11-20T07:28:43;97285.25;;;9.59;100.00
56198;BME280;42700;42.524;12.052;2022-11-20T07:31:09;97137.47;;;9.47;100.00
56198;BME280;42700;42.524;12.052;2022-11-20T07:33:34;97415.31;;;9.81;100.00
56198;BME280;42700;42.524;12.052;2022-11-20T07:36:00;97587.56;;;10.06;100.00
56198;BME280;42700;42.524;12.052;2022-11-20T07:38:26;97515.47;;;10.02;100.00
56198;BME280;42700;42.524;12.052;2022-11-20T07:40:54;97372.28;;;9.94;100.00
56198;BME280;42700;42.524;12.052;2022-11-20T07:43:20;97586.00;;;10.20;100.00
56198;BME280;42700;42.524;12.052;2022-11-20T07:45:46;97352.66;;;10.03;100.00
56198;BME280;42700;42.524;12.052;2022-11-20T07:48:11;97623.09;;;10.28;100.00
56198;BME280;42700;42.524;12.052;2022-11-20T07:50:37;97675.13;;;10.37;100.00
56198;BME280;42700;42.524;12.052;2022-11-20T07:53:03;97680.69;;;10.50;100.00
56198;BME280;42700;42.524;12.052;2022-11-20T07:55:29;97929.19;;;10.76;100.00
56198;BME280;42700;42.524;12.052;2022-11-20T07:57:57;97809.38;;;10.71;100.00
56198;BME280;42700;42.524;12.052;2022-11-20T08:00:23;98048.00;;;10.99;100.00
56198;BME280;42700;42.524;12.052;2022-11-20T08:02:49;98021.78;;;11.04;100.00
56198;BME280;42700;42.524;12.052;2022-11-20T08:05:15;97948.03;;;10.98;100.00
56198;BME280;42700;42.524;12.052;2022-11-20T08:07:41;98259.75;;;11.39;100.00
56198;BME280;42700;42.524;12.052;2022-11-20T08:10:08;98118.38;;;11.27;100.00
56198;BME280;42700;42.524;12.052;2022-11-20T08:12:34;98206.59;;;11.39;100.00
56198;BME280;42700;42.524;12.052;2022-11-20T08:15:18;98362.28;;;11.58;100.00
56198;BME280;42700;42.524;12.052;2022-11-20T08:17:44;97803.84;;;11.04;100.00
56198;BME280;42700;42.524;12.052;2022-11-20T08:20:09;98331.41;;;11.57;100.00
56198;BME280;42700;42.524;12.052;2022-11-20T08:22:37;98822.41;;;12.21;100.00
56198;BME280;42700;42.524;12.052;2022-11-20T08:25:02;98703.09;;;12.24;100.00
56198;BME280;42700;42.524;12.052;2022-11-20T08:27:28;98470.09;;;12.04;100.00
56198;BME280;42700;42.524;12.052;2022-11-20T08:29:53;98331.06;;;11.93;100.00
56198;BME280;42700;42.524;12.052;2022-11-20T08:32:19;98050.88;;;11.68;100.00
56198;BME280;42700;42.524;12.052;2022-11-20T08:34:44;98449.63;;;12.04;100.00
56198;BME280;42700;42.524;12.052;2022-11-20T08:37:11;98483.41;;;12.12;100.00
56198;BME280;42700;42.524;12.052;2022-11-20T08:39:36;98483.41;;;12.20;100.00
56198;BME280;42700;42.524;12.052;2022-11-20T08:42:06;98625.22;;;12.30;100.00
56198;BME280;42700;42.524;12.052;2022-11-20T08:44:31;99202.75;;;12.97;100.00
56198;BME280;42700;42.524;12.052;2022-11-20T08:46:57;98230.84;;;12.09;100.00
56198;BME280;42700;42.524;12.052;2022-11-20T08:49:22;98702.50;;;12.55;100.00
56198;BME280;42700;42.524;12.052;2022-11-20T08:51:48;98683.50;;;12.50;100.00
56198;BME280;42700;42.524;12.052;2022-11-20T08:54:16;98712.81;;;12.58;100.00
56198;BME280;42700;42.524;12.052;2022-11-20T08:56:45;99214.19;;;13.07;100.00
56198;BME280;42700;42.524;12.052;2022-11-20T08:59:10;98906.91;;;12.87;100.00
56198;BME280;42700;42.524;12.052;2022-11-20T09:01:36;99189.38;;;13.15;100.00
56198;BME280;42700;42.524;12.052;2022-11-20T09:04:01;99645.03;;;13.67;100.00
56198;BME280;42700;42.524;12.052;2022-11-20T09:06:28;99128.00;;;13.33;100.00
56198;BME280;42700;42.524;12.052;2022-11-20T09:08:54;99387.75;;;13.68;100.00
56198;BME280;42700;42.524;12.052;2022-11-20T09:11:20;99829.88;;;14.16;100.00
56198;BME280;42700;42.524;12.052;2022-11-20T09:13:46;99409.53;;;13.81;100.00
56198;BME280;42700;42.524;12.052;2022-11-20T09:16:11;99088.75;;;13.60;100.00
56198;BME280;42700;42.524;12.052;2022-11-20T09:18:37;98495.84;;;13.08;100.00
56198;BME280;42700;42.524;12.052;2022-11-20T09:21:04;99395.94;;;13.93;100.00
56198;BME280;42700;42.524;12.052;2022-11-20T09:23:34;98815.53;;;13.53;100.00
56198;BME280;42700;42.524;12.052;2022-11-20T09:26:03;98746.13;;;13.61;100.00
56198;BME280;42700;42.524;12.052;2022-11-20T09:28:29;98845.69;;;13.78;100.00
56198;BME280;42700;42.524;12.052;2022-11-20T09:30:54;98671.69;;;13.74;100.00
56198;BME280;42700;42.524;12.052;2022-11-20T09:33:20;98820.81;;;13.94;100.00
56198;BME280;42700;42.524;12.052;2022-11-20T09:35:45;97784.22;;;13.14;100.00
56198;BME280;42700;42.524;12.052;2022-11-20T09:38:11;98132.28;;;13.54;100.00
56198;BME280;42700;42.524;12.052;2022-11-20T09:40:38;98668.22;;;14.05;100.00
56198;BME280;42700;42.524;12.052;2022-11-20T09:48:45;98511.88;;;14.17;100.00
56198;BME280;42700;42.524;12.052;2022-11-20T09:56:12;100100.50;;;15.78;100.00
56198;BME280;42700;42.524;12.052;2022-11-20T09:58:43;98565.50;;;14.77;100.00
56198;BME280;42700;42.524;12.052;2022-11-20T10:01:14;98977.72;;;15.20;100.00
56198;BME280;42700;42.524;12.052;2022-11-20T10:06:15;97770.09;;;14.33;100.00
56198;BME280;42700;42.524;12.052;2022-11-20T10:08:45;98626.59;;;15.18;100.00
56198;BME280;42700;42.524;12.052;2022-11-20T10:14:22;99005.69;;;15.72;100.00
56198;BME280;42700;42.524;12.052;2022-11-20T10:16:41;98896.88;;;15.56;100.00
56198;BME280;42700;42.524;12.052;2022-11-20T10:24:55;99024.47;;;15.95;100.00
56198;BME280;42700;42.524;12.052;2022-11-20T10:27:32;98100.34;;;15.40;100.00
56198;BME280;42700;42.524;12.052;2022-11-20T10:30:12;98625.38;;;15.80;100.00
56198;BME280;42700;42.524;12.052;2022-11-20T10:32:40;99306.69;;;16.27;100.00
56198;BME280;42700;42.524;12.052;2022-11-20T10:37:49;99897.38;;;17.03;100.00
56198;BME280;42700;42.524;12.052;2022-11-20T10:40:21;97092.09;;;14.93;100.00
56198;BME280;42700;42.524;12.052;2022-11-20T10:42:57;97271.66;;;14.90;100.00
56198;BME280;42700;42.524;12.052;2022-11-20T10:47:50;96114.34;;;14.04;100.00
56198;BME280;42700;42.524;12.052;2022-11-20T10:50:18;95779.72;;;13.71;100.00
56198;BME280;42700;42.524;12.052;2022-11-20T10:55:39;95029.28;;;12.87;100.00
56198;BME280;42700;42.524;12.052;2022-11-20T11:00:34;95339.94;;;12.54;100.00
56198;BME280;42700;42.524;12.052;2022-11-20T11:02:59;95507.56;;;12.49;100.00
56198;BME280;42700;42.524;12.052;2022-11-20T11:07:57;96031.78;;;12.50;100.00
56198;BME280;42700;42.524;12.052;2022-11-20T11:12:48;96367.75;;;12.59;100.00
56198;BME280;42700;42.524;12.052;2022-11-20T11:15:27;96547.38;;;12.63;100.00
56198;BME280;42700;42.524;12.052;2022-11-20T11:17:53;96912.78;;;12.92;100.00
56198;BME280;42700;42.524;12.052;2022-11-20T11:20:20;96152.66;;;12.31;100.00
56198;BME280;42700;42.524;12.052;2022-11-20T11:22:47;96314.56;;;12.34;100.00
56198;BME280;42700;42.524;12.052;2022-11-20T11:25:21;96482.81;;;12.43;100.00
56198;BME280;42700;42.524;12.052;2022-11-20T11:27:47;96886.25;;;12.59;100.00
56198;BME280;42700;42.524;12.052;2022-11-20T11:30:17;96851.84;;;12.57;100.00
56198;BME280;42700;42.524;12.052;2022-11-20T11:32:43;96600.03;;;12.29;100.00
56198;BME280;42700;42.524;12.052;2022-11-20T11:35:23;96589.06;;;12.19;100.00
56198;BME280;42700;42.524;12.052;2022-11-20T11:37:49;96724.22;;;12.04;100.00
56198;BME280;42700;42.524;12.052;2022-11-20T11:40:17;96602.28;;;11.87;100.00
56198;BME280;42700;42.524;12.052;2022-11-20T11:42:43;96838.03;;;12.02;100.00
56198;BME280;42700;42.524;12.052;2022-11-20T11:45:16;96894.94;;;12.07;100.00
56198;BME280;42700;42.524;12.052;2022-11-20T11:47:47;96988.88;;;12.21;100.00
56198;BME280;42700;42.524;12.052;2022-11-20T11:50:17;97048.88;;;12.17;100.00
56198;BME280;42700;42.524;12.052;2022-11-20T11:52:58;96964.53;;;12.24;100.00
56198;BME280;42700;42.524;12.052;2022-11-20T12:00:24;97527.50;;;12.85;100.00
56198;BME280;42700;42.524;12.052;2022-11-20T12:10:17;96833.50;;;12.22;100.00
56198;BME280;42700;42.524;12.052;2022-11-20T12:12:45;96888.16;;;12.31;100.00
56198;BME280;42700;42.524;12.052;2022-11-20T12:15:16;96697.19;;;12.13;100.00
56198;BME280;42700;42.524;12.052;2022-11-20T12:17:45;97218.13;;;12.53;100.00
56198;BME280;42700;42.524;12.052;2022-11-20T12:20:13;97072.06;;;12.50;100.00
56198;BME280;42700;42.524;12.052;2022-11-20T12:22:44;97087.44;;;12.61;100.00
56198;BME280;42700;42.524;12.052;2022-11-20T12:30:16;96827.25;;;12.55;100.00
56198;BME280;42700;42.524;12.052;2022-11-20T12:37:49;96745.31;;;12.57;100.00
56198;BME280;42700;42.524;12.052;2022-11-20T12:40:22;96894.81;;;12.67;100.00
56198;BME280;42700;42.524;12.052;2022-11-20T12:48:16;96827.25;;;12.55;100.00
56198;BME280;42700;42.524;12.052;2022-11-20T12:50:46;96583.56;;;12.46;100.00
56198;BME280;42700;42.524;12.052;2022-11-20T12:53:31;96865.34;;;12.62;100.00
56198;BME280;42700;42.524;12.052;2022-11-20T12:58:27;97031.28;;;12.76;100.00
56198;BME280;42700;42.524;12.052;2022-11-20T13:05:59;96778.34;;;12.88;100.00
56198;BME280;42700;42.524;12.052;2022-11-20T13:08:36;96391.66;;;12.66;100.00
56198;BME280;42700;42.524;12.052;2022-11-20T13:11:16;96125.19;;;12.49;100.00
56198;BME280;42700;42.524;12.052;2022-11-20T13:14:09;96300.00;;;12.55;100.00
56198;BME280;42700;42.524;12.052;2022-11-20T13:16:36;95623.31;;;12.17;100.00
56198;BME280;42700;42.524;12.052;2022-11-20T13:19:03;96208.59;;;12.61;100.00
56198;BME280;42700;42.524;12.052;2022-11-20T13:21:37;96073.25;;;12.58;100.00
56198;BME280;42700;42.524;12.052;2022-11-20T13:24:04;95911.16;;;12.50;100.00
56198;BME280;42700;42.524;12.052;2022-11-20T13:26:29;96219.88;;;12.75;100.00
56198;BME280;42700;42.524;12.052;2022-11-20T13:28:59;95818.66;;;12.57;100.00
56198;BME280;42700;42.524;12.052;2022-11-20T13:31:31;96224.19;;;12.88;100.00
56198;BME280;42700;42.524;12.052;2022-11-20T13:33:57;95704.28;;;12.62;100.00
56198;BME280;42700;42.524;12.052;2022-11-20T13:36:24;95699.63;;;12.69;100.00
56198;BME280;42700;42.524;12.052;2022-11-20T13:38:55;95437.88;;;12.52;100.00
56198;BME280;42700;42.524;12.052;2022-11-20T13:41:31;95514.66;;;12.60;100.00
56198;BME280;42700;42.524;12.052;2022-11-20T13:44:47;95272.84;;;12.52;100.00
56198;BME280;42700;42.524;12.052;2022-11-20T13:46:45;94963.38;;;12.34;100.00
56198;BME280;42700;42.524;12.052;2022-11-20T13:49:18;95268.75;;;12.66;100.00
56198;BME280;42700;42.524;12.052;2022-11-20T13:51:47;94798.41;;;12.34;100.00
56198;BME280;42700;42.524;12.052;2022-11-20T14:02:12;96078.47;;;13.24;100.00
56198;BME280;42700;42.524;12.052;2022-11-20T14:04:42;95808.72;;;13.22;100.00
56198;BME280;42700;42.524;12.052;2022-11-20T14:07:08;95643.66;;;12.98;100.00
56198;BME280;42700;42.524;12.052;2022-11-20T14:09:34;95883.53;;;13.03;100.00